Hauptseite
METAR-TAF:

METAR-TAF

Flughäfen :

Flughafen Sveg

Sveg, Schweden

Breite: 62-02-52N, Länge: 014-25-22E, Höhe: 359 m

Beobachtung

Neuester Wetterbericht von vor 37 Minuten, um 07:50 UTC
Wind 5 kt aus West, variierte zwischen Süd/Südwest und Nordwest
Temperatur 14°C
Luftfeuchtigkeit 67%
Luftdruck 1007 hPa
Sichtweite 10 km oder mehr
Aufgelockert bewölkt in der Höhe von 1800 ft

METAR: ESND 180750Z 27005KT 210V310 9999 SCT018 14/08 Q1007

Zeit: 10:27 (08:27 UTC)


TAF: fehlend

Wetterbeobachtungen und Prognosen von mehr als 4000 Flughäfen (METAR und TAF Bericht).

Die verfügbaren Stationen werden durch gelbe und rote Markierungen auf der Karte dargestellt.

Führen Sie die Maus auf sie, um den Namen der Station zu sehen.

Darauf klicken, um die Beobachtung von Wetterbeobachtungen und Prognosen zu sehen.

Um die Karte zu ändern : klicken Sie auf den grünen Tasten mit einem schwarzen Kreuz Zum Vergrößern, auf den grünen Button mit einem Gedankenstrich zu verkleinern, oder auf die grünen Pfeile für benachbarte Karten.


METAR-TAF: